< Typhoon 198102 1981 Season Typhoon 198104 >
Typhoon 198103 (HOLLY)
General InformationTrack Information on Google MapsDetailed Wind InformationList of All Images || Disaster Info.ResourceGoogle EarthGE AnimationAtom FeedGeoJSON
Detalied Best Track (Time Zone = UTC)
Year Month Day Hour Lat. Long. Pressure (hPa) Wind (kt) Class Image Chart
1981 4 29 00 6.0 162.0 1008 0 2 Image Chart
1981 4 29 06 6.0 162.0 1006 0 2 Image Chart
1981 4 29 12 6.0 162.0 1006 0 2 Image Chart
1981 4 29 18 6.5 161.5 1006 0 2 Image Chart
1981 4 30 00 7.0 161.0 1004 0 2 Image Chart
1981 4 30 06 7.6 160.4 1004 0 2 Image Chart
1981 4 30 12 8.2 159.4 1000 35 3 Image Chart
1981 4 30 18 8.7 158.3 1000 35 3 Image Chart
1981 5 1 00 9.1 157.2 998 40 3 Image Chart
1981 5 1 06 9.4 156.0 998 40 3 Image Chart
1981 5 1 12 9.5 155.0 996 45 3 Image Chart
1981 5 1 18 9.5 154.0 996 45 3 Image Chart
1981 5 2 00 9.7 153.2 996 45 3 Image Chart
1981 5 2 06 9.9 152.5 996 45 3 Image Chart
1981 5 2 12 10.0 151.9 998 45 3 Image Chart
1981 5 2 18 10.1 151.3 998 40 3 Image Chart
1981 5 3 00 10.2 151.0 998 40 3 Image Chart
1981 5 3 06 10.3 150.8 998 40 3 Image Chart
1981 5 3 12 10.5 150.7 998 40 3 Image Chart
1981 5 3 18 10.7 150.6 998 40 3 Image Chart
1981 5 4 00 11.0 150.6 998 40 3 Image Chart
1981 5 4 06 11.2 150.4 998 40 3 Image Chart
1981 5 4 12 11.3 150.2 998 40 3 Image Chart
1981 5 4 18 11.5 150.0 1000 40 3 Image Chart
1981 5 5 00 11.4 149.8 1000 40 3 Image Chart
1981 5 5 06 11.4 149.9 1000 40 3 Image Chart
1981 5 5 12 11.5 149.5 1000 40 3 Image Chart
1981 5 5 18 11.6 149.1 1000 40 3 Image Chart
1981 5 6 00 11.7 148.6 1000 35 3 Image Chart
1981 5 6 06 11.8 147.9 1004 0 2 Image Chart
1981 5 6 12 11.9 147.3 1004 0 2 Image Chart
1981 5 6 18 11.9 146.6 1004 0 2 Image Chart
1981 5 7 00 12.0 146.0 1004 0 2 Image Chart
1981 5 7 06 12.0 145.3 1004 0 2 Image Chart
1981 5 7 12 12.0 144.6 1006 0 2 Image Chart
1981 5 7 18 12.0 143.9 1006 0 2 Image Chart
1981 5 8 00 12.0 143.2 1008 0 2 Image Chart
Japan Meteorological Agency Best Track Data | Correction Date : 1992-10-21
< Typhoon 198102 1981 Season Typhoon 198104 >

Help